createdAt,value
2022-10-30T00:01:01.605Z,16.65
2022-10-30T00:03:29.612Z,13.90
2022-10-30T00:05:57.643Z,14.05
2022-10-30T00:08:26.571Z,12.25
2022-10-30T00:10:55.931Z,16.15
2022-10-30T00:13:23.965Z,12.85
2022-10-30T00:15:54.629Z,12.60
2022-10-30T00:18:22.657Z,14.60
2022-10-30T00:20:50.914Z,12.88
2022-10-30T00:23:20.287Z,15.48
2022-10-30T00:25:48.374Z,14.80
2022-10-30T00:28:17.707Z,17.60
2022-10-30T00:30:45.688Z,14.75
2022-10-30T00:33:13.634Z,17.83
2022-10-30T00:35:49.732Z,13.40
2022-10-30T00:38:17.738Z,14.65
2022-10-30T00:40:45.728Z,12.98
2022-10-30T00:46:19.263Z,15.00
2022-10-30T00:48:55.606Z,15.85
2022-10-30T00:51:24.525Z,13.88
2022-10-30T00:53:54.387Z,15.15
2022-10-30T00:56:24.451Z,12.50
2022-10-30T00:58:58.307Z,14.93
2022-10-30T01:01:30.554Z,12.05
2022-10-30T01:04:03.431Z,11.68
2022-10-30T01:06:36.679Z,12.98
2022-10-30T01:09:05.940Z,14.90
2022-10-30T01:11:34.017Z,11.93
2022-10-30T01:14:08.154Z,14.88
2022-10-30T01:17:03.760Z,10.40
2022-10-30T01:19:45.199Z,14.25
2022-10-30T01:22:33.614Z,13.98
2022-10-30T01:25:17.500Z,11.90
2022-10-30T01:28:00.109Z,15.27
2022-10-30T01:30:48.587Z,14.95
2022-10-30T01:33:36.906Z,14.77
2022-10-30T01:36:16.092Z,13.13
2022-10-30T01:38:50.307Z,14.45
2022-10-30T01:41:18.479Z,12.90
2022-10-30T01:43:51.128Z,10.93
2022-10-30T01:46:52.309Z,14.88
2022-10-30T01:49:46.070Z,12.52
2022-10-30T01:52:23.968Z,11.32
2022-10-30T01:55:03.673Z,12.70
2022-10-30T01:57:41.666Z,10.85
2022-10-30T02:00:14.913Z,12.50
2022-10-30T02:02:43.644Z,11.00
2022-10-30T02:05:22.711Z,12.20
2022-10-30T02:07:50.713Z,10.55
2022-10-30T02:10:18.817Z,11.85
2022-10-30T02:12:46.987Z,15.15
2022-10-30T02:15:15.685Z,12.70
2022-10-30T02:17:43.831Z,9.75
2022-10-30T02:20:18.599Z,13.50
2022-10-30T02:22:47.461Z,10.60
2022-10-30T02:25:16.604Z,10.55
2022-10-30T02:27:44.594Z,9.60
2022-10-30T02:30:13.769Z,11.52
2022-10-30T02:32:41.776Z,12.07
2022-10-30T02:35:10.554Z,11.48
2022-10-30T02:37:40.198Z,11.13
2022-10-30T02:40:09.938Z,11.45
2022-10-30T02:42:37.934Z,11.50
2022-10-30T02:45:06.799Z,13.20
2022-10-30T02:47:34.818Z,11.57
2022-10-30T02:50:02.751Z,11.40
2022-10-30T02:52:30.743Z,10.73
2022-10-30T02:55:00.041Z,11.25
2022-10-30T02:57:28.054Z,11.07
2022-10-30T02:59:56.031Z,13.93
2022-10-30T03:02:24.150Z,11.77
2022-10-30T03:04:52.145Z,14.25
2022-10-30T03:07:20.175Z,10.85
2022-10-30T03:09:48.494Z,12.98
2022-10-30T03:12:17.853Z,11.10
2022-10-30T03:14:45.815Z,12.38
2022-10-30T03:17:13.858Z,11.48
2022-10-30T03:19:41.939Z,9.60
2022-10-30T03:22:10.000Z,10.00
2022-10-30T03:24:38.240Z,10.60
2022-10-30T03:27:06.512Z,9.68
2022-10-30T03:29:35.851Z,11.70
2022-10-30T03:32:03.792Z,12.07
2022-10-30T03:34:31.805Z,10.07
2022-10-30T03:36:59.992Z,11.07
2022-10-30T03:39:27.983Z,10.18
2022-10-30T03:41:56.036Z,13.05
2022-10-30T03:44:24.034Z,10.88
2022-10-30T03:46:53.379Z,9.85
2022-10-30T03:49:21.392Z,11.13
2022-10-30T03:51:49.355Z,11.77
2022-10-30T03:54:18.383Z,9.45
2022-10-30T03:56:46.562Z,10.20
2022-10-30T03:59:14.537Z,10.50
2022-10-30T04:01:42.671Z,12.95
2022-10-30T04:04:12.151Z,10.77
2022-10-30T04:06:40.078Z,10.02
2022-10-30T04:09:08.046Z,13.07
2022-10-30T04:11:36.001Z,11.65
2022-10-30T04:14:03.975Z,9.18
2022-10-30T04:16:31.963Z,14.38
2022-10-30T04:18:59.959Z,11.95
2022-10-30T04:21:29.278Z,12.13
2022-10-30T04:23:57.233Z,14.82
2022-10-30T04:26:25.210Z,11.07
2022-10-30T04:28:53.198Z,10.27
2022-10-30T04:31:21.127Z,9.35
2022-10-30T04:33:49.057Z,10.93
2022-10-30T04:36:18.050Z,7.85
2022-10-30T04:38:47.367Z,11.48
2022-10-30T04:41:15.293Z,9.48
2022-10-30T04:43:43.267Z,10.38
2022-10-30T04:46:11.268Z,9.10
2022-10-30T04:48:39.243Z,11.23
2022-10-30T04:51:08.240Z,8.90
2022-10-30T04:53:36.306Z,10.68
2022-10-30T04:56:06.714Z,11.95
2022-10-30T04:58:34.665Z,11.23
2022-10-30T05:01:03.648Z,12.50
2022-10-30T05:03:31.986Z,8.00
2022-10-30T05:06:03.445Z,7.38
2022-10-30T05:08:31.768Z,9.80
2022-10-30T05:11:00.295Z,9.93
2022-10-30T05:13:29.641Z,11.98
2022-10-30T05:15:57.582Z,9.05
2022-10-30T05:18:25.629Z,9.90
2022-10-30T05:20:53.612Z,10.23
2022-10-30T05:23:21.609Z,9.88
2022-10-30T05:25:49.549Z,11.20
2022-10-30T05:28:17.676Z,11.63
2022-10-30T05:30:47.011Z,10.40
2022-10-30T05:33:17.465Z,8.90
2022-10-30T05:35:45.607Z,9.20
2022-10-30T05:38:14.509Z,10.52
2022-10-30T05:40:42.497Z,8.77
2022-10-30T05:43:10.472Z,10.88
2022-10-30T05:45:38.502Z,9.60
2022-10-30T05:48:08.633Z,9.93
2022-10-30T05:50:36.939Z,8.73
2022-10-30T05:53:06.616Z,13.30
2022-10-30T05:55:34.873Z,10.63
2022-10-30T05:58:06.457Z,9.45
2022-10-30T06:00:36.917Z,10.98
2022-10-30T06:03:08.582Z,11.23
2022-10-30T06:05:38.239Z,10.27
2022-10-30T06:08:08.256Z,9.27
2022-10-30T06:10:36.823Z,10.32
2022-10-30T06:13:07.543Z,12.25
2022-10-30T06:15:35.845Z,11.40
2022-10-30T06:18:03.985Z,9.10
2022-10-30T06:20:33.301Z,11.07
2022-10-30T06:23:03.831Z,8.55
2022-10-30T06:25:40.763Z,9.05
2022-10-30T06:28:11.237Z,12.20
2022-10-30T06:30:39.291Z,10.77
2022-10-30T06:33:08.123Z,9.82
2022-10-30T06:35:37.443Z,11.23
2022-10-30T06:38:05.585Z,9.95
2022-10-30T06:40:34.673Z,13.18
2022-10-30T06:43:02.977Z,11.45
2022-10-30T06:45:31.192Z,10.10
2022-10-30T06:48:01.907Z,11.32
2022-10-30T06:50:30.287Z,14.00
2022-10-30T06:52:59.612Z,9.80
2022-10-30T06:55:27.614Z,10.35
2022-10-30T06:57:57.351Z,10.68
2022-10-30T07:00:25.918Z,11.48
2022-10-30T07:03:02.265Z,10.35
2022-10-30T07:05:30.859Z,11.32
2022-10-30T07:08:00.465Z,8.60
2022-10-30T07:10:28.466Z,8.95
2022-10-30T07:12:58.830Z,10.23
2022-10-30T07:15:27.911Z,7.63
2022-10-30T07:17:57.633Z,9.63
2022-10-30T07:20:27.670Z,7.60
2022-10-30T07:22:55.852Z,8.07
2022-10-30T07:25:25.259Z,8.05
2022-10-30T07:27:55.562Z,9.38
2022-10-30T07:33:02.445Z,10.32
2022-10-30T07:35:32.363Z,7.95
2022-10-30T07:38:04.476Z,8.68
2022-10-30T07:40:34.478Z,9.50
2022-10-30T07:43:04.606Z,11.13
2022-10-30T07:45:33.305Z,12.68
2022-10-30T07:48:01.872Z,11.70
2022-10-30T07:50:30.360Z,9.90
2022-10-30T07:52:58.468Z,8.93
2022-10-30T07:55:26.590Z,8.88
2022-10-30T07:57:56.254Z,10.18
2022-10-30T08:00:24.774Z,8.98
2022-10-30T08:02:56.948Z,7.80
2022-10-30T08:05:28.849Z,8.20
2022-10-30T08:07:59.178Z,10.35
2022-10-30T08:10:27.927Z,13.00
2022-10-30T08:12:57.337Z,10.75
2022-10-30T08:15:25.585Z,9.77
2022-10-30T08:17:54.109Z,7.63
2022-10-30T08:20:24.560Z,9.15
2022-10-30T08:22:54.326Z,10.98
2022-10-30T08:25:25.814Z,11.77
2022-10-30T08:27:59.143Z,9.63
2022-10-30T08:30:30.223Z,7.68
2022-10-30T08:33:00.029Z,9.77
2022-10-30T08:35:29.059Z,8.88
2022-10-30T08:37:57.557Z,8.43
2022-10-30T08:40:27.485Z,9.60
2022-10-30T08:42:58.794Z,8.27
2022-10-30T08:45:30.864Z,9.88
2022-10-30T08:48:01.192Z,8.05
2022-10-30T08:50:30.138Z,11.75
2022-10-30T08:53:01.971Z,8.45
2022-10-30T08:55:31.013Z,13.05
2022-10-30T08:58:00.735Z,9.95
2022-10-30T09:00:29.409Z,8.52
2022-10-30T09:02:58.205Z,8.10
2022-10-30T09:05:26.557Z,11.98
2022-10-30T09:07:58.221Z,11.70
2022-10-30T09:10:26.474Z,10.32
2022-10-30T09:12:57.723Z,10.40
2022-10-30T09:15:28.328Z,12.65
2022-10-30T09:18:01.257Z,11.45
2022-10-30T09:20:31.247Z,8.25
2022-10-30T09:22:59.438Z,11.00
2022-10-30T09:25:28.043Z,8.38
2022-10-30T09:27:56.078Z,10.73
2022-10-30T09:30:26.108Z,10.05
2022-10-30T09:32:58.601Z,10.50
2022-10-30T09:35:27.495Z,10.10
2022-10-30T09:37:56.715Z,9.63
2022-10-30T09:40:42.804Z,12.98
2022-10-30T09:43:28.820Z,9.18
2022-10-30T09:46:21.947Z,7.72
2022-10-30T09:49:11.428Z,9.50
2022-10-30T09:52:06.054Z,11.68
2022-10-30T09:54:56.614Z,8.13
2022-10-30T09:57:40.645Z,6.75
2022-10-30T10:00:13.761Z,8.57
2022-10-30T10:02:59.979Z,14.85
2022-10-30T10:05:39.449Z,10.10
2022-10-30T10:08:16.405Z,12.88
2022-10-30T10:10:48.905Z,7.10
2022-10-30T10:13:31.956Z,9.48
2022-10-30T10:16:12.967Z,9.52
2022-10-30T10:18:48.071Z,8.10
2022-10-30T10:21:26.032Z,9.38
2022-10-30T10:23:57.072Z,8.63
2022-10-30T10:26:32.450Z,9.15
2022-10-30T10:29:28.897Z,8.80
2022-10-30T10:32:18.669Z,8.70
2022-10-30T10:35:07.757Z,10.90
2022-10-30T10:37:45.315Z,8.13
2022-10-30T10:40:38.526Z,9.00
2022-10-30T10:43:25.617Z,8.50
2022-10-30T10:46:26.275Z,9.07
2022-10-30T10:49:14.393Z,7.00
2022-10-30T10:51:50.460Z,8.77
2022-10-30T10:54:25.964Z,6.88
2022-10-30T10:56:54.421Z,10.77
2022-10-30T10:59:33.219Z,7.80
2022-10-30T11:02:34.309Z,11.55
2022-10-30T11:05:13.225Z,11.90
2022-10-30T11:07:49.390Z,9.57
2022-10-30T11:10:21.103Z,9.27
2022-10-30T11:12:49.279Z,9.70
2022-10-30T11:15:32.375Z,8.40
2022-10-30T11:18:03.559Z,9.45
2022-10-30T11:20:43.493Z,10.32
2022-10-30T11:23:40.479Z,10.25
2022-10-30T11:26:34.926Z,9.75
2022-10-30T11:29:13.497Z,8.20
2022-10-30T11:31:43.953Z,9.10
2022-10-30T11:34:26.410Z,9.77
2022-10-30T11:36:55.662Z,13.23
2022-10-30T11:39:27.275Z,9.75
2022-10-30T11:42:04.694Z,8.95
2022-10-30T11:44:38.756Z,10.60
2022-10-30T11:47:09.816Z,10.75
2022-10-30T11:49:47.390Z,8.55
2022-10-30T11:52:18.946Z,10.00
2022-10-30T11:54:52.926Z,11.05
2022-10-30T11:57:30.427Z,11.38
2022-10-30T12:00:04.629Z,9.68
2022-10-30T12:02:43.870Z,10.82
2022-10-30T12:05:34.216Z,9.27
2022-10-30T12:08:21.899Z,8.98
2022-10-30T12:11:01.551Z,6.50
2022-10-30T12:13:38.690Z,8.32
2022-10-30T12:16:20.050Z,8.82
2022-10-30T12:19:03.597Z,11.23
2022-10-30T12:21:39.779Z,7.03
2022-10-30T12:24:18.939Z,6.85
2022-10-30T12:26:53.636Z,8.05
2022-10-30T12:29:41.704Z,10.25
2022-10-30T12:32:20.961Z,9.80
2022-10-30T12:35:00.501Z,8.65
2022-10-30T12:37:34.901Z,14.68
2022-10-30T12:40:13.362Z,10.20
2022-10-30T12:42:55.220Z,7.15
2022-10-30T12:45:32.369Z,7.15
2022-10-30T12:48:09.662Z,7.97
2022-10-30T12:50:45.606Z,7.97
2022-10-30T12:53:30.040Z,7.00
2022-10-30T12:56:07.279Z,12.45
2022-10-30T12:58:47.874Z,9.02
2022-10-30T13:01:28.833Z,8.73
2022-10-30T13:04:10.396Z,12.00
2022-10-30T13:06:47.248Z,8.27
2022-10-30T13:09:24.802Z,12.32
2022-10-30T13:11:59.694Z,11.27
2022-10-30T13:14:38.720Z,9.52
2022-10-30T13:17:12.584Z,11.15
2022-10-30T13:19:42.661Z,10.23
2022-10-30T13:22:20.991Z,11.48
2022-10-30T13:25:03.738Z,9.82
2022-10-30T13:27:46.479Z,10.35
2022-10-30T13:30:20.321Z,13.23
2022-10-30T13:33:08.611Z,9.55
2022-10-30T13:35:45.896Z,6.65
2022-10-30T13:38:44.198Z,13.55
2022-10-30T13:41:27.962Z,9.07
2022-10-30T13:44:12.833Z,10.25
2022-10-30T13:47:06.017Z,9.82
2022-10-30T13:50:03.465Z,8.60
2022-10-30T13:52:36.516Z,6.40
2022-10-30T13:55:15.405Z,11.25
2022-10-30T13:57:51.025Z,9.60
2022-10-30T14:00:22.394Z,7.60
2022-10-30T14:03:16.366Z,11.32
2022-10-30T14:05:52.255Z,8.15
2022-10-30T14:08:33.959Z,7.10
2022-10-30T14:11:05.621Z,7.30
2022-10-30T14:13:50.262Z,9.23
2022-10-30T14:16:43.114Z,11.80
2022-10-30T14:19:13.307Z,8.57
2022-10-30T14:21:44.764Z,6.93
2022-10-30T14:24:17.965Z,8.73
2022-10-30T14:26:55.794Z,8.27
2022-10-30T14:29:49.649Z,8.55
2022-10-30T14:32:49.702Z,11.27
2022-10-30T14:35:41.321Z,7.35
2022-10-30T14:38:36.476Z,6.65
2022-10-30T14:41:28.621Z,6.65
2022-10-30T14:44:44.159Z,5.20
2022-10-30T14:47:55.521Z,5.97
2022-10-30T14:51:02.193Z,7.43
2022-10-30T14:53:50.237Z,6.78
2022-10-30T14:56:36.364Z,5.75
2022-10-30T14:59:23.229Z,5.30
2022-10-30T15:02:21.744Z,3.88
2022-10-30T15:05:28.729Z,7.43
2022-10-30T15:08:20.892Z,6.20
2022-10-30T15:11:11.793Z,7.28
2022-10-30T15:13:51.398Z,10.55
2022-10-30T15:16:22.807Z,6.88
2022-10-30T15:19:00.120Z,5.72
2022-10-30T15:21:33.292Z,6.47
2022-10-30T15:24:03.335Z,4.72
2022-10-30T15:26:37.372Z,9.52
2022-10-30T15:29:07.836Z,5.38
2022-10-30T15:31:35.754Z,8.98
2022-10-30T15:34:03.706Z,10.85
2022-10-30T15:36:43.011Z,13.95
2022-10-30T15:39:15.826Z,12.77
2022-10-30T15:41:48.808Z,15.05
2022-10-30T15:44:22.238Z,10.38
2022-10-30T15:46:52.989Z,12.25
2022-10-30T15:49:31.296Z,10.13
2022-10-30T15:52:01.073Z,9.43
2022-10-30T15:54:32.608Z,8.07
2022-10-30T15:57:42.828Z,11.40
2022-10-30T15:59:55.620Z,10.55
2022-10-30T16:02:26.774Z,12.25
2022-10-30T16:04:55.092Z,9.73
2022-10-30T16:07:26.138Z,10.82
2022-10-30T16:09:57.997Z,10.60
2022-10-30T16:12:28.897Z,7.82
2022-10-30T16:14:58.833Z,9.68
2022-10-30T16:17:28.030Z,11.00
2022-10-30T16:20:03.000Z,13.52
2022-10-30T16:22:38.993Z,10.40
2022-10-30T16:25:12.809Z,14.95
2022-10-30T16:27:46.216Z,14.02
2022-10-30T16:30:17.204Z,15.48
2022-10-30T16:32:52.223Z,12.48
2022-10-30T16:35:24.250Z,14.30
2022-10-30T16:37:53.278Z,12.23
2022-10-30T16:40:28.285Z,14.80
2022-10-30T16:42:59.383Z,11.68
2022-10-30T16:45:50.974Z,10.43
2022-10-30T16:48:27.932Z,11.88
2022-10-30T16:51:04.665Z,11.55
2022-10-30T16:53:33.421Z,14.57
2022-10-30T16:56:03.465Z,10.73
2022-10-30T16:58:32.854Z,13.95
2022-10-30T17:01:07.295Z,15.32
2022-10-30T17:03:41.005Z,18.60
2022-10-30T17:06:29.384Z,13.20
2022-10-30T17:09:01.127Z,13.70
2022-10-30T17:11:41.892Z,16.33
2022-10-30T17:14:22.004Z,12.25
2022-10-30T17:16:56.178Z,14.85
2022-10-30T17:19:48.311Z,14.13
2022-10-30T17:22:21.406Z,16.20
2022-10-30T17:24:49.550Z,16.08
2022-10-30T17:27:47.728Z,23.48
2022-10-30T17:30:40.371Z,28.75
2022-10-30T17:33:28.382Z,26.92
2022-10-30T17:35:56.374Z,21.83
2022-10-30T17:38:24.409Z,20.90
2022-10-30T17:40:52.486Z,18.95
2022-10-30T17:43:26.375Z,19.55
2022-10-30T17:45:54.280Z,14.88
2022-10-30T17:48:26.560Z,18.25
2022-10-30T17:50:54.492Z,17.55
2022-10-30T17:53:25.616Z,19.73
2022-10-30T17:56:02.288Z,19.75
2022-10-30T17:58:31.887Z,18.02
2022-10-30T18:01:00.559Z,20.55
2022-10-30T18:03:28.906Z,18.88
2022-10-30T18:05:58.604Z,18.50
2022-10-30T18:08:26.522Z,19.02
2022-10-30T18:10:54.693Z,18.48
2022-10-30T18:13:22.685Z,21.20
2022-10-30T18:15:58.130Z,23.27
2022-10-30T18:18:26.123Z,20.38
2022-10-30T18:20:54.066Z,18.83
2022-10-30T18:23:51.414Z,18.52
2022-10-30T18:26:17.317Z,18.48
2022-10-30T18:28:45.843Z,18.67
2022-10-30T18:31:18.234Z,17.98
2022-10-30T18:33:46.441Z,16.65
2022-10-30T18:36:16.177Z,16.05
2022-10-30T18:38:44.793Z,17.58
2022-10-30T18:41:17.738Z,19.08
2022-10-30T18:43:47.137Z,16.35
2022-10-30T18:46:17.478Z,18.42
2022-10-30T18:48:45.979Z,20.88
2022-10-30T18:51:19.729Z,22.52
2022-10-30T18:53:52.386Z,20.65
2022-10-30T18:56:22.445Z,19.83
2022-10-30T18:58:54.844Z,20.60
2022-10-30T19:01:28.144Z,18.63
2022-10-30T19:03:56.254Z,19.17
2022-10-30T19:06:25.505Z,16.92
2022-10-30T19:08:53.438Z,22.80
2022-10-30T19:11:25.050Z,17.65
2022-10-30T19:13:54.600Z,18.33
2022-10-30T19:16:25.594Z,15.60
2022-10-30T19:18:55.159Z,18.02
2022-10-30T19:21:26.011Z,18.88
2022-10-30T19:23:55.496Z,18.38
2022-10-30T19:26:23.880Z,15.88
2022-10-30T19:28:51.777Z,19.25
2022-10-30T19:31:21.174Z,19.33
2022-10-30T19:33:53.153Z,20.85
2022-10-30T19:36:33.571Z,16.15
2022-10-30T19:39:07.447Z,16.23
2022-10-30T19:41:36.990Z,17.40
2022-10-30T19:44:05.728Z,18.30
2022-10-30T19:46:33.792Z,16.00
2022-10-30T19:49:13.566Z,18.25
2022-10-30T19:51:42.914Z,15.60
2022-10-30T19:54:10.849Z,16.08
2022-10-30T19:56:38.889Z,16.40
2022-10-30T19:59:10.660Z,21.38
2022-10-30T20:01:38.776Z,17.48
2022-10-30T20:04:06.843Z,14.05
2022-10-30T20:06:34.838Z,17.50
2022-10-30T20:09:05.406Z,16.63
2022-10-30T20:11:33.409Z,16.38
2022-10-30T20:14:01.372Z,16.17
2022-10-30T20:16:29.398Z,19.25
2022-10-30T20:18:57.387Z,17.70
2022-10-30T20:21:28.227Z,16.95
2022-10-30T20:23:56.245Z,17.00
2022-10-30T20:26:30.134Z,14.52
2022-10-30T20:29:00.403Z,15.35
2022-10-30T20:31:28.500Z,17.10
2022-10-30T20:33:56.603Z,16.77
2022-10-30T20:36:24.560Z,18.02
2022-10-30T20:38:52.483Z,17.95
2022-10-30T20:41:24.127Z,17.75
2022-10-30T20:43:53.471Z,15.93
2022-10-30T20:46:22.209Z,14.07
2022-10-30T20:48:50.498Z,14.15
2022-10-30T20:51:18.502Z,17.27
2022-10-30T20:53:46.627Z,17.98
2022-10-30T20:56:14.644Z,18.00
2022-10-30T20:58:43.288Z,20.98
2022-10-30T21:01:13.979Z,14.23
2022-10-30T21:03:42.075Z,17.08
2022-10-30T21:06:10.134Z,20.58
2022-10-30T21:08:38.572Z,19.13
2022-10-30T21:11:08.199Z,16.60
2022-10-30T21:13:37.454Z,20.40
2022-10-30T21:16:09.160Z,14.55
2022-10-30T21:18:38.542Z,17.08
2022-10-30T21:21:11.422Z,17.38
2022-10-30T21:23:39.565Z,18.55
2022-10-30T21:26:10.852Z,16.30
2022-10-30T21:28:39.329Z,15.55
2022-10-30T21:31:11.459Z,15.68
2022-10-30T21:33:41.282Z,15.32
2022-10-30T21:36:14.336Z,16.83
2022-10-30T21:38:44.368Z,13.77
2022-10-30T21:41:14.131Z,14.77
2022-10-30T21:43:42.486Z,15.55
2022-10-30T21:46:13.367Z,15.23
2022-10-30T21:48:42.724Z,15.75
2022-10-30T21:51:13.473Z,16.75
2022-10-30T21:53:42.374Z,15.23
2022-10-30T21:56:13.566Z,17.10
2022-10-30T21:58:42.129Z,15.88
2022-10-30T22:01:16.595Z,18.23
2022-10-30T22:03:46.659Z,15.63
2022-10-30T22:06:17.933Z,17.08
2022-10-30T22:08:47.358Z,16.20
2022-10-30T22:11:16.173Z,16.65
2022-10-30T22:13:44.371Z,17.00
2022-10-30T22:16:15.525Z,15.40
2022-10-30T22:18:44.924Z,15.20
2022-10-30T22:21:14.362Z,17.65
2022-10-30T22:23:43.590Z,13.57
2022-10-30T22:26:15.442Z,15.50
2022-10-30T22:28:44.593Z,15.98
2022-10-30T22:31:15.893Z,10.73
2022-10-30T22:33:45.913Z,12.00
2022-10-30T22:36:17.702Z,11.63
2022-10-30T22:38:46.838Z,13.80
2022-10-30T22:41:18.455Z,10.45
2022-10-30T22:43:49.797Z,13.55
2022-10-30T22:46:19.857Z,15.35
2022-10-30T22:48:49.314Z,10.80
2022-10-30T22:51:20.277Z,11.95
2022-10-30T22:53:57.128Z,13.00
2022-10-30T22:56:27.111Z,11.50
2022-10-30T22:58:56.344Z,17.52
2022-10-30T23:01:26.955Z,18.67
2022-10-30T23:04:00.037Z,10.95
2022-10-30T23:06:30.965Z,11.25
2022-10-30T23:09:01.581Z,11.15
2022-10-30T23:11:30.929Z,10.18
2022-10-30T23:13:59.091Z,11.32
2022-10-30T23:16:28.068Z,12.00
2022-10-30T23:18:59.458Z,13.32
2022-10-30T23:21:30.919Z,10.85
2022-10-30T23:24:00.029Z,11.85
2022-10-30T23:26:31.825Z,11.15
2022-10-30T23:29:01.348Z,11.00
2022-10-30T23:31:33.379Z,10.23
2022-10-30T23:34:07.121Z,12.57
2022-10-30T23:36:35.251Z,9.82
2022-10-30T23:39:06.115Z,11.73
2022-10-30T23:41:34.926Z,10.95
2022-10-30T23:44:06.608Z,12.55
2022-10-30T23:46:36.395Z,12.10
2022-10-30T23:49:06.445Z,12.65
2022-10-30T23:51:34.639Z,10.65
2022-10-30T23:54:02.868Z,11.15
2022-10-30T23:56:31.188Z,12.15
2022-10-30T23:58:59.571Z,10.93
